Time;durP1;ratioP1;P1;durP2;ratioP2;P2;SDS_P1;SDS_P2;PMS_P1;PMS_P2;Temp;Humidity;BMP_temperature;BMP_pressure;BME280_temperature;BME280_humidity;BME280_pressure;Samples;Min_cycle;Max_cycle;Signal;HPM_P1;HPM_P2
2023/01/27 00:03:00;;;;;;;67.00;30.10;;;;;;;2.62;73.43;100506.54;128781;1276;107583;-71
2023/01/27 00:06:10;;;;;;;62.00;30.00;;;;;;;2.64;73.53;100504.80;128957;1276;107565;-71
2023/01/27 00:09:16;;;;;;;63.10;30.30;;;;;;;2.63;73.50;100502.95;128934;1276;107305;-71
2023/01/27 00:15:47;;;;;;;75.60;36.90;;;;;;;2.58;73.57;100499.77;128954;1276;107527;-71
2023/01/27 00:18:52;;;;;;;72.00;35.20;;;;;;;2.54;73.61;100502.23;129011;1271;107547;-75
2023/01/27 00:25:21;;;;;;;60.00;30.60;;;;;;;2.47;73.49;100503.19;129017;1276;108730;-73
2023/01/27 00:28:30;;;;;;;60.60;30.00;;;;;;;2.45;73.69;100502.49;129023;1277;107597;-73
2023/01/27 00:34:58;;;;;;;57.00;28.60;;;;;;;2.41;73.68;100507.30;129135;1276;107639;-72
2023/01/27 00:38:04;;;;;;;52.80;28.60;;;;;;;2.41;73.69;100511.70;129166;1288;107536;-72
2023/01/27 00:41:19;;;;;;;58.90;28.80;;;;;;;2.40;73.60;100517.02;129208;1288;107725;-74
2023/01/27 00:44:25;;;;;;;60.10;28.70;;;;;;;2.39;73.75;100516.71;129189;1276;107556;-73
2023/01/27 00:47:30;;;;;;;54.50;28.80;;;;;;;2.34;73.62;100518.91;128667;1277;108743;-73
2023/01/27 00:50:36;;;;;;;54.10;28.80;;;;;;;2.31;73.63;100524.90;128983;1274;108526;-73
2023/01/27 00:53:42;;;;;;;50.90;27.60;;;;;;;2.29;73.68;100524.85;129124;1276;107556;-74
2023/01/27 00:56:47;;;;;;;56.10;28.40;;;;;;;2.26;73.79;100524.32;128996;1276;107655;-73
2023/01/27 00:59:53;;;;;;;55.90;27.10;;;;;;;2.26;73.98;100527.00;129174;1277;107632;-74
2023/01/27 01:02:59;;;;;;;54.50;27.10;;;;;;;2.26;74.01;100529.63;128614;1280;107428;-71
2023/01/27 01:06:07;;;;;;;51.20;26.10;;;;;;;2.29;74.18;100525.41;128978;1276;107616;-72
2023/01/27 01:09:13;;;;;;;44.60;23.50;;;;;;;2.34;73.99;100530.17;128934;1295;107303;-71
2023/01/27 01:12:18;;;;;;;54.80;27.30;;;;;;;2.43;73.84;100528.23;128894;1275;107576;-71
2023/01/27 01:15:24;;;;;;;50.70;25.30;;;;;;;2.49;73.81;100529.27;128980;1276;107262;-71
2023/01/27 01:18:29;;;;;;;48.90;25.40;;;;;;;2.53;73.72;100530.24;128754;1272;107624;-74
2023/01/27 01:21:37;;;;;;;50.70;25.60;;;;;;;2.55;73.75;100525.36;129114;1274;107418;-74
2023/01/27 01:24:42;;;;;;;52.80;25.90;;;;;;;2.57;73.72;100527.55;128985;1277;107628;-74
2023/01/27 01:27:48;;;;;;;50.90;26.60;;;;;;;2.55;73.71;100527.45;128926;1275;106710;-71
2023/01/27 01:30:53;;;;;;;52.70;27.40;;;;;;;2.53;73.92;100522.48;129011;1276;107611;-72
2023/01/27 01:33:59;;;;;;;56.50;25.90;;;;;;;2.52;73.71;100524.69;129145;1274;107461;-73
2023/01/27 01:37:05;;;;;;;55.20;27.00;;;;;;;2.47;73.88;100517.82;129052;1277;107589;-72
2023/01/27 01:40:13;;;;;;;56.80;27.10;;;;;;;2.43;73.70;100516.95;128976;1277;107588;-71
2023/01/27 01:43:21;;;;;;;54.20;26.70;;;;;;;2.41;73.98;100514.14;129038;1275;107556;-73
2023/01/27 01:46:27;;;;;;;54.10;26.90;;;;;;;2.35;73.87;100514.61;129015;1274;107401;-71
2023/01/27 01:49:38;;;;;;;50.60;26.50;;;;;;;2.32;73.94;100511.50;128987;1276;107588;-72
2023/01/27 01:52:44;;;;;;;54.50;27.80;;;;;;;2.31;74.15;100518.08;128960;1283;107279;-71
2023/01/27 01:55:50;;;;;;;53.70;26.50;;;;;;;2.28;74.12;100514.92;128911;1276;105411;-72
2023/01/27 01:59:01;;;;;;;53.20;27.70;;;;;;;2.27;74.15;100516.38;128907;1274;106509;-74
2023/01/27 02:02:09;;;;;;;53.20;27.60;;;;;;;2.26;74.11;100516.26;129198;1274;107469;-74
2023/01/27 02:05:19;;;;;;;53.30;28.10;;;;;;;2.23;74.27;100518.88;128856;1279;108153;-72
2023/01/27 02:08:29;;;;;;;55.00;27.20;;;;;;;2.22;74.40;100519.70;129117;1277;107592;-71
2023/01/27 02:11:34;;;;;;;57.90;27.60;;;;;;;2.21;74.28;100519.00;128524;1277;107588;-71
2023/01/27 02:14:41;;;;;;;50.20;24.20;;;;;;;2.23;74.19;100521.21;128692;1274;107571;-72
2023/01/27 02:17:47;;;;;;;55.40;26.10;;;;;;;2.23;74.29;100516.44;128865;1277;107509;-73
2023/01/27 02:20:54;;;;;;;52.00;26.90;;;;;;;2.29;74.26;100517.12;128623;1280;107565;-72
2023/01/27 02:24:09;;;;;;;51.90;25.90;;;;;;;2.34;74.30;100518.04;129014;1274;107507;-72
2023/01/27 02:27:15;;;;;;;55.80;26.30;;;;;;;2.37;74.38;100517.91;128930;1272;107520;-72
2023/01/27 02:30:22;;;;;;;60.30;28.20;;;;;;;2.40;74.30;100516.67;128983;1274;107509;-72
2023/01/27 02:33:28;;;;;;;64.10;30.10;;;;;;;2.41;74.14;100518.18;128677;1277;107228;-72
2023/01/27 02:36:38;;;;;;;85.80;45.30;;;;;;;2.40;74.27;100522.98;128937;1274;107895;-73
2023/01/27 02:39:46;;;;;;;94.90;49.80;;;;;;;2.40;74.41;100519.83;128936;1287;107573;-73
2023/01/27 02:42:56;;;;;;;79.30;39.80;;;;;;;2.40;74.38;100520.50;129007;1271;107571;-78
2023/01/27 02:46:02;;;;;;;58.80;29.70;;;;;;;2.41;74.41;100518.20;128897;1280;107572;-73
2023/01/27 02:49:07;;;;;;;77.60;37.90;;;;;;;2.38;74.41;100522.40;129191;1277;107439;-73
2023/01/27 02:52:15;;;;;;;72.10;36.40;;;;;;;2.32;74.35;100523.98;128980;1277;107530;-72
2023/01/27 02:55:20;;;;;;;67.70;35.80;;;;;;;2.29;74.67;100530.97;129190;1295;107397;-73
2023/01/27 02:58:27;;;;;;;60.50;29.70;;;;;;;2.27;74.66;100528.30;128993;1275;107391;-73
2023/01/27 03:01:37;;;;;;;56.20;28.20;;;;;;;2.25;74.59;100530.38;129064;1274;107468;-74
2023/01/27 03:04:43;;;;;;;65.20;29.90;;;;;;;2.23;74.65;100526.64;129167;1276;107296;-73
2023/01/27 03:07:48;;;;;;;151.30;49.70;;;;;;;2.21;74.63;100527.23;128652;1279;107582;-73
2023/01/27 03:10:54;;;;;;;102.90;35.40;;;;;;;2.23;74.71;100527.64;128948;1275;108451;-73
2023/01/27 03:14:00;;;;;;;72.00;32.00;;;;;;;2.27;74.68;100530.45;129041;1277;107444;-73
2023/01/27 03:20:29;;;;;;;62.80;26.70;;;;;;;2.33;74.83;100536.73;128688;1280;107682;-72
2023/01/27 03:23:36;;;;;;;92.20;35.20;;;;;;;2.33;74.78;100538.48;129108;1276;107663;-72
2023/01/27 03:26:42;;;;;;;90.60;36.00;;;;;;;2.34;74.81;100538.20;129137;1274;107494;-72
2023/01/27 03:29:57;;;;;;;115.30;44.60;;;;;;;2.34;74.92;100538.74;129133;1274;107491;-72
2023/01/27 03:33:04;;;;;;;71.60;30.90;;;;;;;2.35;74.88;100541.48;129114;1280;107366;-72
2023/01/27 03:46:58;;;;;;;57.70;24.40;;;;;;;2.25;74.91;100541.80;128800;1277;107509;-72
2023/01/27 03:50:09;;;;;;;59.90;26.20;;;;;;;2.19;75.23;100538.82;128629;1274;108820;-73
2023/01/27 03:53:15;;;;;;;57.10;25.40;;;;;;;2.14;75.16;100541.17;128608;1273;107447;-74
2023/01/27 03:56:22;;;;;;;68.90;29.30;;;;;;;2.09;75.24;100541.84;128607;1277;107550;-71
2023/01/27 03:59:28;;;;;;;80.10;33.30;;;;;;;2.08;75.29;100538.75;128525;1280;107411;-72
2023/01/27 04:09:27;;;;;;;52.40;24.70;;;;;;;2.22;75.20;100543.35;128715;1277;107540;-72
2023/01/27 04:12:32;;;;;;;57.80;24.30;;;;;;;2.29;75.34;100542.43;128642;1277;108587;-72
2023/01/27 04:15:38;;;;;;;55.00;23.60;;;;;;;2.32;75.38;100541.49;128646;1276;107593;-72
2023/01/27 04:18:45;;;;;;;56.70;23.60;;;;;;;2.35;75.24;100540.61;128914;1277;108438;-72
2023/01/27 04:21:51;;;;;;;50.50;22.90;;;;;;;2.38;75.32;100540.64;128932;1273;107479;-72
2023/01/27 04:24:57;;;;;;;53.60;22.40;;;;;;;2.39;75.19;100544.63;128976;1272;107354;-72
2023/01/27 04:28:02;;;;;;;55.90;24.20;;;;;;;2.37;75.23;100546.15;128957;1277;107677;-71
2023/01/27 04:31:08;;;;;;;55.90;24.70;;;;;;;2.35;75.32;100546.23;128942;1278;108737;-72
2023/01/27 04:34:14;;;;;;;51.60;23.20;;;;;;;2.35;75.28;100551.33;128918;1271;105734;-72
2023/01/27 04:37:20;;;;;;;59.40;24.50;;;;;;;2.34;75.34;100552.45;128911;1273;107477;-71
2023/01/27 04:40:25;;;;;;;57.90;24.90;;;;;;;2.31;75.47;100555.45;128915;1277;109291;-71
2023/01/27 04:43:31;;;;;;;53.90;22.10;;;;;;;2.30;75.48;100554.66;128939;1277;107598;-71
2023/01/27 04:46:36;;;;;;;50.90;21.60;;;;;;;2.29;75.38;100561.04;128965;1276;107630;-71
2023/01/27 04:49:42;;;;;;;53.60;22.70;;;;;;;2.26;75.44;100562.93;128944;1276;105763;-71
2023/01/27 04:52:48;;;;;;;61.30;24.00;;;;;;;2.25;75.50;100565.48;128939;1278;107282;-73
2023/01/27 04:56:00;;;;;;;62.20;26.50;;;;;;;2.26;75.60;100567.68;128986;1284;107506;-72
2023/01/27 04:59:10;;;;;;;47.80;19.70;;;;;;;2.30;75.64;100563.96;128972;1276;107563;-71
2023/01/27 05:02:15;;;;;;;55.00;22.30;;;;;;;2.35;75.43;100565.56;128871;1276;107540;-73
2023/01/27 05:05:21;;;;;;;52.10;21.60;;;;;;;2.41;75.63;100572.25;129035;1271;107581;-70
2023/01/27 05:08:26;;;;;;;50.90;22.10;;;;;;;2.41;75.20;100568.75;128782;1277;107530;-71
2023/01/27 05:11:32;;;;;;;51.10;21.90;;;;;;;2.44;75.37;100570.81;128974;1277;108198;-72
2023/01/27 05:14:37;;;;;;;49.50;23.40;;;;;;;2.47;75.58;100571.15;128935;1284;107595;-71
2023/01/27 05:17:43;;;;;;;51.70;22.30;;;;;;;2.48;75.45;100573.20;128934;1276;108699;-71
2023/01/27 05:20:48;;;;;;;50.20;23.00;;;;;;;2.49;75.39;100579.48;128949;1276;107395;-72
2023/01/27 05:23:54;;;;;;;56.80;24.10;;;;;;;2.47;75.36;100580.98;128952;1276;107617;-72
2023/01/27 05:26:59;;;;;;;59.50;23.60;;;;;;;2.47;75.77;100577.85;128728;1280;107565;-72
2023/01/27 05:30:07;;;;;;;54.70;24.80;;;;;;;2.47;75.56;100579.81;128659;1277;107377;-72
2023/01/27 05:33:12;;;;;;;56.00;24.10;;;;;;;2.46;75.46;100578.61;128685;1280;107582;-72
2023/01/27 05:36:19;;;;;;;56.70;25.30;;;;;;;2.45;75.46;100583.27;128955;1277;108620;-72
2023/01/27 05:39:25;;;;;;;55.00;25.50;;;;;;;2.38;75.54;100586.67;128742;1277;107302;-71
2023/01/27 05:42:31;;;;;;;57.90;24.70;;;;;;;2.34;75.67;100585.14;128642;1276;107422;-71
2023/01/27 05:45:36;;;;;;;62.30;24.50;;;;;;;2.34;75.77;100587.73;128644;1287;107654;-71
2023/01/27 05:48:44;;;;;;;49.00;20.90;;;;;;;2.39;75.67;100588.54;128725;1276;105962;-72
2023/01/27 05:51:49;;;;;;;51.90;22.30;;;;;;;2.44;75.64;100590.83;128763;1287;107663;-71
2023/01/27 05:54:55;;;;;;;57.70;23.90;;;;;;;2.52;75.74;100587.92;128482;1281;106488;-72
2023/01/27 05:58:00;;;;;;;62.10;26.50;;;;;;;2.53;75.40;100588.91;128736;1277;107537;-74
2023/01/27 06:01:11;;;;;;;59.60;26.40;;;;;;;2.43;75.54;100588.11;128822;1278;107281;-74
2023/01/27 06:04:16;;;;;;;58.10;23.90;;;;;;;2.45;75.59;100597.30;128677;1278;106730;-70
2023/01/27 06:07:22;;;;;;;67.40;29.50;;;;;;;2.46;75.75;100601.61;128592;1277;108668;-71
2023/01/27 06:10:28;;;;;;;61.20;25.90;;;;;;;2.48;75.58;100604.10;128543;1280;107660;-71
2023/01/27 06:13:34;;;;;;;58.30;26.00;;;;;;;2.48;75.49;100604.34;128593;1280;108453;-71
2023/01/27 06:16:40;;;;;;;60.70;25.30;;;;;;;2.46;75.54;100608.95;128602;1296;107278;-72
2023/01/27 06:19:45;;;;;;;61.70;27.20;;;;;;;2.45;75.62;100607.63;128658;1278;107583;-73
2023/01/27 06:22:51;;;;;;;58.80;26.60;;;;;;;2.44;75.58;100614.36;128979;1277;107537;-74
2023/01/27 06:26:01;;;;;;;56.30;26.40;;;;;;;2.41;75.77;100620.02;129279;1277;107573;-73
2023/01/27 06:29:06;;;;;;;58.60;24.00;;;;;;;2.41;75.79;100626.53;129029;1277;108335;-73
2023/01/27 06:32:12;;;;;;;75.20;29.60;;;;;;;2.41;75.92;100629.16;129013;1276;107607;-74
2023/01/27 06:35:18;;;;;;;71.30;28.10;;;;;;;2.40;75.82;100629.91;129205;1288;107536;-74
2023/01/27 06:38:23;;;;;;;54.60;24.00;;;;;;;2.42;75.82;100632.21;129265;1288;107631;-75
2023/01/27 06:41:29;;;;;;;68.20;27.40;;;;;;;2.49;75.82;100636.73;129118;1277;108604;-73
2023/01/27 06:44:34;;;;;;;62.60;26.40;;;;;;;2.54;75.91;100643.65;128795;1291;107580;-72
2023/01/27 06:47:41;;;;;;;61.80;27.70;;;;;;;2.57;75.69;100646.63;128611;1277;107618;-73
2023/01/27 06:50:47;;;;;;;67.20;28.30;;;;;;;2.57;75.67;100646.08;129077;1277;107588;-73
2023/01/27 06:53:52;;;;;;;62.90;28.00;;;;;;;2.58;75.91;100642.67;129170;1273;107487;-73
2023/01/27 06:56:58;;;;;;;63.30;27.90;;;;;;;2.59;75.91;100645.63;128961;1277;107560;-73
2023/01/27 07:00:04;;;;;;;61.00;27.10;;;;;;;2.54;75.75;100643.79;128950;1273;107259;-75
2023/01/27 07:03:12;;;;;;;84.00;38.40;;;;;;;2.52;75.91;100642.36;128974;1276;107731;-73
2023/01/27 07:06:19;;;;;;;67.90;30.90;;;;;;;2.52;75.88;100644.06;128921;1273;107219;-75
2023/01/27 07:09:24;;;;;;;61.40;27.90;;;;;;;2.50;75.83;100645.25;129120;1278;107475;-75
2023/01/27 07:12:30;;;;;;;59.90;27.60;;;;;;;2.48;75.91;100640.13;129022;1273;107587;-73
2023/01/27 07:15:35;;;;;;;269.50;93.00;;;;;;;2.48;75.92;100641.51;128867;1273;107631;-73
2023/01/27 07:18:41;;;;;;;98.20;39.10;;;;;;;2.47;75.95;100645.06;129068;1278;107261;-73
2023/01/27 07:21:46;;;;;;;70.50;29.00;;;;;;;2.48;75.94;100649.23;129162;1273;108707;-74
2023/01/27 07:24:54;;;;;;;61.40;27.40;;;;;;;2.51;76.02;100650.63;129200;1276;107594;-74
2023/01/27 07:28:01;;;;;;;66.70;28.80;;;;;;;2.56;75.86;100653.85;129117;1284;107461;-74
2023/01/27 07:31:06;;;;;;;70.90;31.10;;;;;;;2.66;76.01;100654.52;128872;1273;107576;-74
2023/01/27 07:34:12;;;;;;;66.30;30.60;;;;;;;2.73;75.83;100656.89;128632;1277;107560;-74
2023/01/27 07:37:17;;;;;;;71.30;32.50;;;;;;;2.79;75.91;100656.21;129078;1277;107675;-74
2023/01/27 07:40:23;;;;;;;71.70;33.80;;;;;;;2.83;75.70;100654.71;128678;1280;106443;-78
2023/01/27 07:43:29;;;;;;;73.20;34.10;;;;;;;2.84;75.69;100652.54;128996;1277;107579;-73
2023/01/27 07:46:34;;;;;;;82.70;34.10;;;;;;;2.90;75.74;100651.48;129083;1274;107607;-73
2023/01/27 07:49:40;;;;;;;62.10;28.20;;;;;;;2.92;75.61;100652.73;129155;1276;107494;-73
2023/01/27 07:52:45;;;;;;;67.90;31.70;;;;;;;2.93;75.50;100653.92;129195;1272;107571;-78
2023/01/27 07:55:51;;;;;;;76.40;34.30;;;;;;;2.95;75.54;100656.42;129316;1273;107201;-78
2023/01/27 07:58:57;;;;;;;74.30;35.20;;;;;;;2.94;75.45;100653.85;129065;1273;107589;-76
2023/01/27 08:02:02;;;;;;;86.50;37.20;;;;;;;2.89;75.37;100658.16;129090;1273;107508;-76
2023/01/27 08:05:09;;;;;;;89.80;41.30;;;;;;;2.85;75.51;100657.73;129302;1276;107712;-77
2023/01/27 08:08:15;;;;;;;78.40;33.30;;;;;;;2.82;75.62;100658.61;129250;1276;107602;-74
2023/01/27 08:11:21;;;;;;;65.80;30.10;;;;;;;2.83;75.29;100656.80;129255;1279;107318;-73
2023/01/27 08:14:26;;;;;;;61.80;28.40;;;;;;;2.83;75.24;100662.62;129101;1277;106759;-73
2023/01/27 08:17:32;;;;;;;70.40;29.60;;;;;;;2.82;75.25;100662.88;129160;1274;108021;-73
2023/01/27 08:20:37;;;;;;;62.40;27.00;;;;;;;2.81;75.27;100663.10;129238;1273;107602;-72
2023/01/27 08:23:43;;;;;;;60.20;26.70;;;;;;;2.80;75.14;100665.62;129210;1276;107546;-75
2023/01/27 08:26:48;;;;;;;65.70;26.00;;;;;;;2.81;75.10;100671.15;129224;1287;108703;-73
2023/01/27 08:29:54;;;;;;;70.50;27.30;;;;;;;2.83;75.38;100670.52;129089;1276;105985;-83
2023/01/27 08:33:00;;;;;;;74.30;31.40;;;;;;;2.83;75.14;100669.45;129171;1287;107556;-72
2023/01/27 08:36:10;;;;;;;63.60;26.60;;;;;;;2.88;75.22;100675.52;129334;1276;108721;-74
2023/01/27 08:39:15;;;;;;;75.60;34.80;;;;;;;2.98;75.22;100678.73;129183;1277;107594;-76
2023/01/27 08:42:21;;;;;;;66.10;31.50;;;;;;;3.05;74.98;100674.48;129083;1290;107574;-74
2023/01/27 08:45:27;;;;;;;64.50;28.70;;;;;;;3.10;74.87;100674.63;129235;1288;106313;-74
2023/01/27 08:48:33;;;;;;;64.90;29.00;;;;;;;3.19;75.16;100675.67;128875;1279;106764;-75
2023/01/27 08:51:38;;;;;;;62.20;28.30;;;;;;;3.27;74.92;100685.59;129185;1276;107555;-74
2023/01/27 08:54:44;;;;;;;60.20;28.20;;;;;;;3.30;74.76;100687.82;129062;1276;107585;-74
2023/01/27 08:57:49;;;;;;;56.20;26.50;;;;;;;3.35;74.80;100693.16;129079;1274;107540;-74
2023/01/27 09:00:55;;;;;;;49.80;25.10;;;;;;;3.40;74.67;100692.17;129043;1279;107634;-74
2023/01/27 09:04:00;;;;;;;59.10;28.70;;;;;;;3.44;74.59;100694.70;128922;1279;107533;-73
2023/01/27 09:07:06;;;;;;;58.10;27.30;;;;;;;3.56;74.63;100695.20;129054;1273;107419;-74
2023/01/27 09:10:12;;;;;;;60.50;28.00;;;;;;;3.65;74.35;100694.97;130341;1273;107297;-74
2023/01/27 09:13:21;;;;;;;59.70;28.30;;;;;;;3.76;74.24;100700.78;132464;1272;107454;-74
2023/01/27 09:16:26;;;;;;;53.30;25.30;;;;;;;3.82;73.61;100700.20;129151;1273;107325;-73
2023/01/27 09:19:32;;;;;;;57.90;26.90;;;;;;;3.84;73.82;100703.23;128810;1274;107473;-73
2023/01/27 09:22:40;;;;;;;53.80;25.50;;;;;;;3.88;73.93;100706.17;128885;1276;107557;-73
2023/01/27 09:25:45;;;;;;;52.70;26.30;;;;;;;3.88;73.19;100701.58;128981;1274;107576;-73
2023/01/27 09:28:51;;;;;;;55.80;26.20;;;;;;;3.84;73.79;100702.39;128577;1276;107598;-74
2023/01/27 09:31:56;;;;;;;56.70;26.50;;;;;;;3.90;73.82;100695.97;128619;1277;106691;-74
2023/01/27 09:35:02;;;;;;;54.80;27.30;;;;;;;3.90;73.24;100694.56;128681;1285;107333;-74
2023/01/27 09:38:09;;;;;;;56.60;27.10;;;;;;;3.84;73.10;100702.75;128694;1295;107442;-73
2023/01/27 09:41:33;;;;;;;55.80;27.20;;;;;;;3.74;73.00;100704.27;128856;1276;107290;-73
2023/01/27 09:45:07;;;;;;;47.50;24.80;;;;;;;3.71;73.10;100703.38;128638;1277;107521;-73
2023/01/27 09:48:37;;;;;;;50.60;25.20;;;;;;;3.74;73.25;100698.98;129040;1276;107592;-73
2023/01/27 09:51:55;;;;;;;53.80;26.30;;;;;;;3.77;72.53;100699.29;128944;1277;106389;-73
2023/01/27 09:55:12;;;;;;;51.30;23.70;;;;;;;3.63;71.94;100698.48;128792;1273;107600;-73
2023/01/27 09:58:28;;;;;;;47.60;22.50;;;;;;;3.50;71.88;100699.94;128924;1274;107512;-73
2023/01/27 10:01:46;;;;;;;55.50;26.60;;;;;;;3.38;72.37;100705.63;129079;1273;107602;-73
2023/01/27 10:05:08;;;;;;;46.30;23.10;;;;;;;3.29;71.90;100711.66;129138;1292;107567;-73
2023/01/27 10:08:40;;;;;;;43.70;20.70;;;;;;;3.27;72.18;100713.69;129069;1276;108958;-73
2023/01/27 10:11:55;;;;;;;48.40;23.30;;;;;;;3.22;71.35;100712.30;128989;1276;107661;-73
2023/01/27 10:15:16;;;;;;;49.00;22.90;;;;;;;3.21;71.98;100713.91;128812;1273;108649;-73
2023/01/27 10:18:38;;;;;;;52.00;23.40;;;;;;;3.18;72.07;100716.59;128748;1274;106443;-73
2023/01/27 10:21:52;;;;;;;54.40;24.70;;;;;;;3.19;72.53;100717.39;128853;1273;107408;-73
2023/01/27 10:25:12;;;;;;;45.40;22.30;;;;;;;3.30;72.35;100716.36;129214;1273;107417;-73
2023/01/27 10:28:21;;;;;;;47.30;23.20;;;;;;;3.41;71.94;100720.91;129195;1287;107268;-73
2023/01/27 10:31:34;;;;;;;47.50;22.80;;;;;;;3.37;71.21;100721.38;129030;1287;107287;-73
2023/01/27 10:34:51;;;;;;;49.60;23.50;;;;;;;3.37;72.34;100719.77;129001;1274;108582;-74
2023/01/27 10:38:08;;;;;;;44.60;22.50;;;;;;;3.44;71.61;100716.90;129181;1275;107423;-73
2023/01/27 10:41:27;;;;;;;46.10;22.10;;;;;;;3.43;72.18;100714.64;128936;1276;107562;-73
2023/01/27 10:44:50;;;;;;;45.10;23.50;;;;;;;3.61;72.23;100714.95;128997;1274;108541;-74
2023/01/27 10:48:13;;;;;;;44.20;23.10;;;;;;;3.66;70.56;100712.31;129060;1272;107722;-74
2023/01/27 10:51:26;;;;;;;39.50;20.10;;;;;;;3.65;71.49;100707.14;129101;1272;107433;-74
2023/01/27 10:54:35;;;;;;;44.00;23.60;;;;;;;3.71;71.48;100715.31;129245;1284;106569;-73
2023/01/27 10:57:45;;;;;;;38.30;20.90;;;;;;;3.79;71.21;100718.34;129014;1278;107289;-73
2023/01/27 11:00:54;;;;;;;44.50;23.90;;;;;;;3.91;71.10;100717.58;128940;1273;107796;-73
2023/01/27 11:04:06;;;;;;;46.70;22.20;;;;;;;4.00;70.45;100712.46;129067;1271;107487;-73
2023/01/27 11:07:18;;;;;;;39.60;21.30;;;;;;;3.99;70.67;100710.42;129146;1274;107271;-73
2023/01/27 11:10:37;;;;;;;45.10;22.20;;;;;;;4.08;70.95;100709.81;129216;1276;106738;-73
2023/01/27 11:13:45;;;;;;;40.80;21.60;;;;;;;4.13;70.76;100699.84;129281;1271;107415;-73
2023/01/27 11:16:52;;;;;;;36.90;21.80;;;;;;;4.11;69.75;100698.34;129171;1273;107508;-73
2023/01/27 11:20:06;;;;;;;38.50;21.30;;;;;;;4.08;70.66;100689.55;128667;1274;107562;-74
2023/01/27 11:23:18;;;;;;;42.50;25.10;;;;;;;4.14;70.49;100688.63;128938;1273;106486;-73
2023/01/27 11:26:39;;;;;;;40.30;20.50;;;;;;;4.12;70.30;100689.28;128642;1273;107448;-73
2023/01/27 11:29:54;;;;;;;35.40;19.20;;;;;;;4.07;70.46;100689.65;128693;1276;107685;-73
2023/01/27 11:33:04;;;;;;;42.60;21.10;;;;;;;4.07;70.51;100684.70;128822;1295;107266;-75
2023/01/27 11:36:11;;;;;;;38.30;20.30;;;;;;;4.08;70.53;100682.70;128710;1274;107453;-74
2023/01/27 11:39:17;;;;;;;44.60;21.80;;;;;;;4.09;70.42;100684.23;128723;1276;107616;-75
2023/01/27 11:42:24;;;;;;;45.30;22.30;;;;;;;4.06;70.19;100683.55;129124;1274;107538;-75
2023/01/27 11:45:34;;;;;;;51.90;28.10;;;;;;;4.05;70.60;100679.15;128975;1275;107635;-75
2023/01/27 11:48:42;;;;;;;39.60;21.80;;;;;;;4.07;69.89;100680.98;129104;1274;107439;-75
2023/01/27 11:51:48;;;;;;;38.80;19.40;;;;;;;4.02;69.98;100681.66;129280;1273;107463;-74
2023/01/27 11:54:57;;;;;;;34.50;19.10;;;;;;;4.05;70.04;100681.64;128953;1273;107563;-75
2023/01/27 11:58:13;;;;;;;34.30;18.50;;;;;;;4.05;68.77;100682.92;129001;1274;107552;-75
2023/01/27 12:01:22;;;;;;;36.80;19.30;;;;;;;3.91;69.19;100681.30;129242;1273;107486;-74
2023/01/27 12:04:47;;;;;;;33.30;18.70;;;;;;;3.87;69.72;100683.90;129228;1274;107603;-74
2023/01/27 12:07:57;;;;;;;34.60;18.60;;;;;;;3.82;68.54;100686.48;129141;1276;107297;-74
2023/01/27 12:11:18;;;;;;;32.10;17.70;;;;;;;3.73;68.47;100689.55;129130;1277;107508;-76
2023/01/27 12:14:24;;;;;;;35.90;18.70;;;;;;;3.55;68.71;100690.87;129193;1274;107533;-74
2023/01/27 12:17:38;;;;;;;32.80;18.70;;;;;;;3.49;69.38;100691.06;129119;1276;107448;-74
2023/01/27 12:20:47;;;;;;;37.00;20.70;;;;;;;3.47;69.11;100694.35;129090;1273;107411;-74
2023/01/27 12:23:54;;;;;;;35.30;20.80;;;;;;;3.45;69.67;100699.77;128596;1280;107924;-74
2023/01/27 12:27:03;;;;;;;37.80;20.50;;;;;;;3.44;69.17;100699.45;128657;1274;107429;-73
2023/01/27 12:30:21;;;;;;;35.10;19.80;;;;;;;3.31;68.89;100693.06;128716;1279;107628;-73
2023/01/27 12:33:31;;;;;;;34.80;19.90;;;;;;;3.15;68.96;100695.09;128769;1274;106589;-75
2023/01/27 12:36:42;;;;;;;38.40;22.40;;;;;;;3.12;69.19;100693.35;128724;1280;107568;-76
2023/01/27 12:39:55;;;;;;;33.30;19.50;;;;;;;3.07;68.67;100699.26;128748;1274;108727;-73
2023/01/27 12:43:15;;;;;;;34.00;21.30;;;;;;;2.97;68.57;100700.41;128814;1274;107434;-73
2023/01/27 12:46:23;;;;;;;34.00;20.00;;;;;;;2.89;68.83;100703.35;129064;1279;107318;-75
2023/01/27 12:49:33;;;;;;;36.40;21.50;;;;;;;2.96;69.19;100700.13;128750;1274;107430;-75
2023/01/27 12:52:39;;;;;;;33.90;20.10;;;;;;;3.02;69.23;100701.54;129199;1279;107578;-79
2023/01/27 12:55:49;;;;;;;39.10;21.50;;;;;;;2.95;68.81;100698.42;128984;1273;107654;-81
2023/01/27 12:59:01;;;;;;;37.30;21.10;;;;;;;2.87;69.17;100696.11;128911;1279;107780;-81
2023/01/27 13:02:18;;;;;;;40.50;24.00;;;;;;;2.86;69.33;100696.50;129238;1273;107416;-82
2023/01/27 13:05:25;;;;;;;46.40;27.70;;;;;;;2.81;69.56;100697.90;130256;1273;107465;-80
2023/01/27 13:08:34;;;;;;;53.70;32.20;;;;;;;2.79;69.77;100695.56;129299;1274;107662;-74
2023/01/27 13:11:44;;;;;;;50.40;30.30;;;;;;;2.72;69.67;100691.70;129104;1279;108289;-76
2023/01/27 13:14:53;;;;;;;36.80;21.20;;;;;;;2.67;69.96;100693.23;128970;1274;107557;-73
2023/01/27 13:18:00;;;;;;;39.70;22.20;;;;;;;2.67;69.45;100689.71;130340;1273;107533;-70
2023/01/27 13:21:15;;;;;;;56.40;30.90;;;;;;;2.63;69.51;100691.04;129198;1274;108656;-72
2023/01/27 13:24:31;;;;;;;64.00;32.70;;;;;;;2.62;69.52;100690.05;129206;1272;107599;-73
2023/01/27 13:27:40;;;;;;;47.80;27.10;;;;;;;2.67;70.01;100695.72;129002;1277;107675;-71
2023/01/27 13:30:50;;;;;;;243.60;137.80;;;;;;;2.67;69.60;100702.58;129200;1276;107561;-71
2023/01/27 13:34:00;;;;;;;99.00;48.40;;;;;;;2.57;69.95;100701.74;129100;1274;107438;-73
2023/01/27 13:37:12;;;;;;;50.30;26.90;;;;;;;2.59;69.99;100705.17;129204;1272;107620;-73
2023/01/27 13:40:21;;;;;;;46.90;24.90;;;;;;;2.60;70.01;100710.39;129061;1275;108583;-71
2023/01/27 13:43:32;;;;;;;38.80;20.50;;;;;;;2.54;69.96;100714.42;129109;1274;107618;-75
2023/01/27 13:46:40;;;;;;;42.20;22.10;;;;;;;2.52;70.32;100722.92;129139;1277;107455;-74
2023/01/27 13:49:49;;;;;;;37.70;20.40;;;;;;;2.55;70.45;100726.30;129176;1274;107621;-81
2023/01/27 13:52:57;;;;;;;41.00;21.20;;;;;;;2.58;70.29;100724.36;129002;1273;107298;-73
2023/01/27 13:56:16;;;;;;;47.70;24.90;;;;;;;2.59;70.33;100724.96;128965;1271;107373;-74
2023/01/27 13:59:40;;;;;;;40.50;22.40;;;;;;;2.64;70.65;100727.84;129023;1276;107542;-74
2023/01/27 14:03:08;;;;;;;46.60;24.70;;;;;;;2.66;70.59;100729.86;129104;1271;107531;-74
2023/01/27 14:06:24;;;;;;;45.50;23.20;;;;;;;2.60;70.85;100724.92;128833;1271;107440;-75
2023/01/27 14:09:49;;;;;;;47.40;24.00;;;;;;;2.63;70.78;100726.14;129574;1273;107575;-74
2023/01/27 14:13:16;;;;;;;48.60;24.10;;;;;;;2.64;70.80;100721.72;129092;1277;107389;-73
2023/01/27 14:16:31;;;;;;;46.10;23.80;;;;;;;2.61;70.99;100723.48;129012;1274;108782;-73
2023/01/27 14:19:44;;;;;;;46.40;24.00;;;;;;;2.59;71.21;100723.77;129033;1274;107476;-75
2023/01/27 14:23:01;;;;;;;42.60;23.00;;;;;;;2.51;71.38;100730.77;128991;1273;107546;-75
2023/01/27 14:26:16;;;;;;;48.80;24.90;;;;;;;2.51;71.45;100731.63;128596;1274;107491;-73
2023/01/27 14:29:33;;;;;;;48.90;25.50;;;;;;;2.50;71.82;100728.52;128543;1274;107491;-79
2023/01/27 14:32:46;;;;;;;47.70;24.10;;;;;;;2.47;71.65;100735.89;128830;1273;107672;-72
2023/01/27 14:35:58;;;;;;;51.90;24.70;;;;;;;2.46;71.80;100736.50;128856;1279;107553;-74
2023/01/27 14:39:09;;;;;;;;;;;;;;;2.46;71.93;100738.56;128692;1279;107450;-74
2023/01/27 14:42:28;;;;;;;49.40;23.20;;;;;;;2.43;72.02;100740.17;128576;1277;107413;-74